sensor_id;sensor_type;location;lat;lon;timestamp;pressure;altitude;pressure_sealevel;temperature;humidity
60015;BME280;45867;52.480;6.056;2023-12-20T00:01:00;100563.78;;;5.21;100.00
60015;BME280;45867;52.480;6.056;2023-12-20T00:03:30;100558.47;;;5.04;100.00
60015;BME280;45867;52.480;6.056;2023-12-20T00:06:08;100589.63;;;5.12;100.00
60015;BME280;45867;52.480;6.056;2023-12-20T00:08:37;100563.22;;;4.90;100.00
60015;BME280;45867;52.480;6.056;2023-12-20T00:11:13;100570.72;;;4.99;100.00
60015;BME280;45867;52.480;6.056;2023-12-20T00:13:40;100551.91;;;4.90;100.00
60015;BME280;45867;52.480;6.056;2023-12-20T00:16:09;100554.03;;;4.76;100.00
60015;BME280;45867;52.480;6.056;2023-12-20T00:18:36;100596.59;;;5.07;100.00
60015;BME280;45867;52.480;6.056;2023-12-20T00:21:03;100589.00;;;4.94;100.00
60015;BME280;45867;52.480;6.056;2023-12-20T00:23:34;100597.72;;;4.82;100.00
60015;BME280;45867;52.480;6.056;2023-12-20T00:26:02;100586.16;;;4.95;100.00
60015;BME280;45867;52.480;6.056;2023-12-20T00:28:29;100593.94;;;4.90;100.00
60015;BME280;45867;52.480;6.056;2023-12-20T00:30:56;100595.34;;;4.81;100.00
60015;BME280;45867;52.480;6.056;2023-12-20T00:33:23;100609.31;;;4.98;100.00
60015;BME280;45867;52.480;6.056;2023-12-20T00:35:49;100597.63;;;4.77;100.00
60015;BME280;45867;52.480;6.056;2023-12-20T00:38:19;100625.22;;;4.92;100.00
60015;BME280;45867;52.480;6.056;2023-12-20T00:40:46;100585.78;;;4.63;100.00
60015;BME280;45867;52.480;6.056;2023-12-20T00:43:15;100593.66;;;4.63;100.00
60015;BME280;45867;52.480;6.056;2023-12-20T00:45:42;100624.59;;;4.73;100.00
60015;BME280;45867;52.480;6.056;2023-12-20T00:48:09;100627.88;;;4.68;100.00
60015;BME280;45867;52.480;6.056;2023-12-20T00:50:41;100643.28;;;4.76;100.00
60015;BME280;45867;52.480;6.056;2023-12-20T00:53:09;100631.56;;;4.67;100.00
60015;BME280;45867;52.480;6.056;2023-12-20T00:55:36;100635.88;;;4.73;100.00
60015;BME280;45867;52.480;6.056;2023-12-20T00:58:06;100650.59;;;4.74;100.00
60015;BME280;45867;52.480;6.056;2023-12-20T01:00:32;100645.13;;;4.76;100.00
60015;BME280;45867;52.480;6.056;2023-12-20T01:03:02;100672.38;;;4.86;100.00
60015;BME280;45867;52.480;6.056;2023-12-20T01:05:34;100676.72;;;4.81;100.00
60015;BME280;45867;52.480;6.056;2023-12-20T01:08:01;100663.97;;;4.73;100.00
60015;BME280;45867;52.480;6.056;2023-12-20T01:10:30;100670.31;;;4.88;100.00
60015;BME280;45867;52.480;6.056;2023-12-20T01:13:00;100671.13;;;4.89;100.00
60015;BME280;45867;52.480;6.056;2023-12-20T01:15:30;100695.75;;;5.00;100.00
60015;BME280;45867;52.480;6.056;2023-12-20T01:17:56;100683.75;;;5.04;100.00
60015;BME280;45867;52.480;6.056;2023-12-20T01:20:23;100670.66;;;4.92;100.00
60015;BME280;45867;52.480;6.056;2023-12-20T01:22:50;100689.81;;;4.93;100.00
60015;BME280;45867;52.480;6.056;2023-12-20T01:25:19;100665.66;;;4.79;100.00
60015;BME280;45867;52.480;6.056;2023-12-20T01:27:50;100699.22;;;4.88;100.00
60015;BME280;45867;52.480;6.056;2023-12-20T01:30:22;100678.00;;;4.55;100.00
60015;BME280;45867;52.480;6.056;2023-12-20T01:32:49;100719.66;;;4.75;100.00
60015;BME280;45867;52.480;6.056;2023-12-20T01:35:18;100720.78;;;4.67;100.00
60015;BME280;45867;52.480;6.056;2023-12-20T01:37:55;100734.59;;;4.74;100.00
60015;BME280;45867;52.480;6.056;2023-12-20T01:40:25;100733.56;;;4.63;100.00
60015;BME280;45867;52.480;6.056;2023-12-20T01:43:01;100743.47;;;4.50;100.00
60015;BME280;45867;52.480;6.056;2023-12-20T01:45:31;100754.22;;;4.60;100.00
60015;BME280;45867;52.480;6.056;2023-12-20T01:48:02;100727.06;;;4.42;100.00
60015;BME280;45867;52.480;6.056;2023-12-20T01:50:35;100774.88;;;4.68;100.00
60015;BME280;45867;52.480;6.056;2023-12-20T01:53:04;100761.19;;;4.54;100.00
60015;BME280;45867;52.480;6.056;2023-12-20T01:55:33;100769.88;;;4.66;100.00
60015;BME280;45867;52.480;6.056;2023-12-20T01:58:01;100781.97;;;4.67;100.00
60015;BME280;45867;52.480;6.056;2023-12-20T02:00:31;100776.94;;;4.66;100.00
60015;BME280;45867;52.480;6.056;2023-12-20T02:03:01;100748.50;;;4.39;100.00
60015;BME280;45867;52.480;6.056;2023-12-20T02:05:33;100771.56;;;4.49;100.00
60015;BME280;45867;52.480;6.056;2023-12-20T02:08:06;100771.22;;;4.69;100.00
60015;BME280;45867;52.480;6.056;2023-12-20T02:10:34;100735.63;;;4.61;100.00
60015;BME280;45867;52.480;6.056;2023-12-20T02:13:03;100745.53;;;4.71;100.00
60015;BME280;45867;52.480;6.056;2023-12-20T02:15:30;100724.88;;;4.63;100.00
60015;BME280;45867;52.480;6.056;2023-12-20T02:17:57;100735.41;;;4.75;100.00
60015;BME280;45867;52.480;6.056;2023-12-20T02:20:24;100705.41;;;4.59;100.00
60015;BME280;45867;52.480;6.056;2023-12-20T02:22:50;100723.72;;;4.82;100.00
60015;BME280;45867;52.480;6.056;2023-12-20T02:25:20;100680.97;;;4.58;100.00
60015;BME280;45867;52.480;6.056;2023-12-20T02:27:47;100698.41;;;4.76;100.00
60015;BME280;45867;52.480;6.056;2023-12-20T02:30:15;100684.59;;;4.69;100.00
60015;BME280;45867;52.480;6.056;2023-12-20T02:32:41;100697.72;;;4.81;100.00
60015;BME280;45867;52.480;6.056;2023-12-20T02:35:11;100675.38;;;4.66;100.00
60015;BME280;45867;52.480;6.056;2023-12-20T02:37:39;100659.06;;;4.64;100.00
60015;BME280;45867;52.480;6.056;2023-12-20T02:40:06;100671.38;;;4.64;100.00
60015;BME280;45867;52.480;6.056;2023-12-20T02:42:36;100685.97;;;4.83;100.00
60015;BME280;45867;52.480;6.056;2023-12-20T02:45:05;100658.91;;;4.71;100.00
60015;BME280;45867;52.480;6.056;2023-12-20T02:47:34;100686.88;;;4.77;100.00
60015;BME280;45867;52.480;6.056;2023-12-20T02:50:07;100663.50;;;4.76;100.00
60015;BME280;45867;52.480;6.056;2023-12-20T02:52:33;100664.53;;;4.75;100.00
60015;BME280;45867;52.480;6.056;2023-12-20T02:55:00;100674.44;;;4.84;100.00
60015;BME280;45867;52.480;6.056;2023-12-20T02:57:27;100644.88;;;4.77;100.00
60015;BME280;45867;52.480;6.056;2023-12-20T02:59:54;100630.63;;;4.73;100.00
60015;BME280;45867;52.480;6.056;2023-12-20T03:02:21;100648.72;;;4.98;100.00
60015;BME280;45867;52.480;6.056;2023-12-20T03:04:55;100614.72;;;4.80;100.00
60015;BME280;45867;52.480;6.056;2023-12-20T03:07:22;100637.50;;;5.03;100.00
60015;BME280;45867;52.480;6.056;2023-12-20T03:09:52;100637.03;;;5.06;100.00
60015;BME280;45867;52.480;6.056;2023-12-20T03:12:39;100625.44;;;4.90;100.00
60015;BME280;45867;52.480;6.056;2023-12-20T03:15:09;100644.59;;;5.02;100.00
60015;BME280;45867;52.480;6.056;2023-12-20T03:17:36;100625.91;;;4.87;100.00
60015;BME280;45867;52.480;6.056;2023-12-20T03:20:02;100635.47;;;4.93;100.00
60015;BME280;45867;52.480;6.056;2023-12-20T03:22:29;100657.00;;;5.07;100.00
60015;BME280;45867;52.480;6.056;2023-12-20T03:25:00;100637.03;;;5.06;100.00
60015;BME280;45867;52.480;6.056;2023-12-20T03:27:26;100637.84;;;5.06;100.00
60015;BME280;45867;52.480;6.056;2023-12-20T03:29:53;100627.28;;;5.18;100.00
60015;BME280;45867;52.480;6.056;2023-12-20T03:32:22;100623.38;;;5.21;100.00
60015;BME280;45867;52.480;6.056;2023-12-20T03:34:49;100632.81;;;5.33;100.00
60015;BME280;45867;52.480;6.056;2023-12-20T03:37:16;100627.00;;;5.31;100.00
60015;BME280;45867;52.480;6.056;2023-12-20T03:39:45;100659.91;;;5.51;100.00
60015;BME280;45867;52.480;6.056;2023-12-20T03:42:12;100624.47;;;5.37;100.00
60015;BME280;45867;52.480;6.056;2023-12-20T03:44:42;100633.59;;;5.34;100.00
60015;BME280;45867;52.480;6.056;2023-12-20T03:47:10;100672.75;;;5.64;100.00
60015;BME280;45867;52.480;6.056;2023-12-20T03:49:38;100648.59;;;5.33;100.00
60015;BME280;45867;52.480;6.056;2023-12-20T03:52:05;100681.88;;;5.45;100.00
60015;BME280;45867;52.480;6.056;2023-12-20T03:54:32;100693.81;;;5.36;100.00
60015;BME280;45867;52.480;6.056;2023-12-20T03:56:58;100735.03;;;5.47;100.00
60015;BME280;45867;52.480;6.056;2023-12-20T03:59:25;100734.28;;;5.23;100.00
60015;BME280;45867;52.480;6.056;2023-12-20T04:01:51;100753.00;;;5.26;100.00
60015;BME280;45867;52.480;6.056;2023-12-20T04:04:23;100772.28;;;5.44;100.00
60015;BME280;45867;52.480;6.056;2023-12-20T04:06:53;100739.44;;;5.29;100.00
60015;BME280;45867;52.480;6.056;2023-12-20T04:09:20;100747.97;;;5.37;100.00
60015;BME280;45867;52.480;6.056;2023-12-20T04:11:48;100776.13;;;5.53;100.00
60015;BME280;45867;52.480;6.056;2023-12-20T04:14:22;100804.69;;;5.61;100.00
60015;BME280;45867;52.480;6.056;2023-12-20T04:16:51;100817.81;;;5.61;100.00
60015;BME280;45867;52.480;6.056;2023-12-20T04:19:20;100854.88;;;5.60;100.00
60015;BME280;45867;52.480;6.056;2023-12-20T04:21:51;100858.09;;;5.38;100.00
60015;BME280;45867;52.480;6.056;2023-12-20T04:24:20;100881.53;;;5.28;100.00
60015;BME280;45867;52.480;6.056;2023-12-20T04:26:47;100930.88;;;5.61;100.00
60015;BME280;45867;52.480;6.056;2023-12-20T04:29:16;100933.72;;;5.48;100.00
60015;BME280;45867;52.480;6.056;2023-12-20T04:31:45;100940.03;;;5.47;100.00
60015;BME280;45867;52.480;6.056;2023-12-20T04:34:22;100973.72;;;5.62;100.00
60015;BME280;45867;52.480;6.056;2023-12-20T04:36:51;100986.66;;;5.63;100.00
60015;BME280;45867;52.480;6.056;2023-12-20T04:39:23;100966.19;;;5.42;100.00
60015;BME280;45867;52.480;6.056;2023-12-20T04:41:50;100989.84;;;5.53;100.00
60015;BME280;45867;52.480;6.056;2023-12-20T04:44:20;100984.59;;;5.42;100.00
60015;BME280;45867;52.480;6.056;2023-12-20T04:46:49;101032.38;;;5.62;100.00
60015;BME280;45867;52.480;6.056;2023-12-20T04:49:15;101016.91;;;5.42;100.00
60015;BME280;45867;52.480;6.056;2023-12-20T04:51:47;101015.66;;;5.45;100.00
60015;BME280;45867;52.480;6.056;2023-12-20T04:54:21;101052.38;;;5.63;100.00
60015;BME280;45867;52.480;6.056;2023-12-20T04:56:47;101046.06;;;5.52;100.00
60015;BME280;45867;52.480;6.056;2023-12-20T04:59:19;101065.06;;;5.54;100.00
60015;BME280;45867;52.480;6.056;2023-12-20T05:01:46;101084.03;;;5.56;100.00
60015;BME280;45867;52.480;6.056;2023-12-20T05:04:15;101118.69;;;5.77;100.00
60015;BME280;45867;52.480;6.056;2023-12-20T05:06:48;101125.22;;;5.74;100.00
60015;BME280;45867;52.480;6.056;2023-12-20T05:09:14;101158.63;;;5.86;100.00
60015;BME280;45867;52.480;6.056;2023-12-20T05:11:41;101154.84;;;5.82;100.00
60015;BME280;45867;52.480;6.056;2023-12-20T05:14:08;101156.78;;;5.86;100.00
60015;BME280;45867;52.480;6.056;2023-12-20T05:16:34;101152.88;;;5.77;100.00
60015;BME280;45867;52.480;6.056;2023-12-20T05:19:01;101146.13;;;5.69;100.00
60015;BME280;45867;52.480;6.056;2023-12-20T05:21:29;101152.59;;;5.55;100.00
60015;BME280;45867;52.480;6.056;2023-12-20T05:23:55;101191.75;;;5.75;100.00
60015;BME280;45867;52.480;6.056;2023-12-20T05:26:24;101189.41;;;5.55;100.00
60015;BME280;45867;52.480;6.056;2023-12-20T05:28:57;101240.94;;;5.86;100.00
60015;BME280;45867;52.480;6.056;2023-12-20T05:31:26;101255.25;;;5.90;100.00
60015;BME280;45867;52.480;6.056;2023-12-20T05:33:55;101268.13;;;5.98;100.00
60015;BME280;45867;52.480;6.056;2023-12-20T05:36:27;101231.88;;;5.70;100.00
60015;BME280;45867;52.480;6.056;2023-12-20T05:38:53;101275.44;;;5.96;100.00
60015;BME280;45867;52.480;6.056;2023-12-20T05:41:20;101288.38;;;5.98;100.00
60015;BME280;45867;52.480;6.056;2023-12-20T05:43:46;101310.81;;;6.00;100.00
60015;BME280;45867;52.480;6.056;2023-12-20T05:46:33;101278.31;;;5.76;100.00
60015;BME280;45867;52.480;6.056;2023-12-20T05:49:03;101307.28;;;5.88;100.00
60015;BME280;45867;52.480;6.056;2023-12-20T05:51:35;101289.03;;;5.75;100.00
60015;BME280;45867;52.480;6.056;2023-12-20T05:54:14;101323.06;;;5.88;100.00
60015;BME280;45867;52.480;6.056;2023-12-20T05:56:48;101339.81;;;5.94;100.00
60015;BME280;45867;52.480;6.056;2023-12-20T05:59:21;101330.50;;;5.91;100.00
60015;BME280;45867;52.480;6.056;2023-12-20T06:01:50;101329.56;;;5.86;100.00
60015;BME280;45867;52.480;6.056;2023-12-20T06:04:20;101337.97;;;5.94;100.00
60015;BME280;45867;52.480;6.056;2023-12-20T06:06:50;101355.97;;;5.97;100.00
60015;BME280;45867;52.480;6.056;2023-12-20T06:09:24;101386.66;;;6.04;100.00
60015;BME280;45867;52.480;6.056;2023-12-20T06:11:56;101383.88;;;5.98;100.00
60015;BME280;45867;52.480;6.056;2023-12-20T06:14:25;101389.59;;;5.95;100.00
60015;BME280;45867;52.480;6.056;2023-12-20T06:17:03;101411.34;;;6.03;100.00
60015;BME280;45867;52.480;6.056;2023-12-20T06:19:30;101426.75;;;6.17;100.00
60015;BME280;45867;52.480;6.056;2023-12-20T06:22:00;101422.75;;;6.15;100.00
60015;BME280;45867;52.480;6.056;2023-12-20T06:24:26;101431.78;;;6.19;100.00
60015;BME280;45867;52.480;6.056;2023-12-20T06:26:59;101446.91;;;6.23;100.00
60015;BME280;45867;52.480;6.056;2023-12-20T06:29:26;101453.22;;;6.22;100.00
60015;BME280;45867;52.480;6.056;2023-12-20T06:31:55;101478.78;;;6.34;100.00
60015;BME280;45867;52.480;6.056;2023-12-20T06:34:24;101433.91;;;6.10;100.00
60015;BME280;45867;52.480;6.056;2023-12-20T06:36:51;101445.03;;;6.12;100.00
60015;BME280;45867;52.480;6.056;2023-12-20T06:39:21;101467.91;;;6.30;100.00
60015;BME280;45867;52.480;6.056;2023-12-20T06:41:48;101465.13;;;6.25;100.00
60015;BME280;45867;52.480;6.056;2023-12-20T06:44:33;101482.13;;;6.41;100.00
60015;BME280;45867;52.480;6.056;2023-12-20T06:47:00;101489.81;;;6.42;100.00
60015;BME280;45867;52.480;6.056;2023-12-20T06:49:26;101497.91;;;6.41;100.00
60015;BME280;45867;52.480;6.056;2023-12-20T06:51:53;101461.84;;;6.11;100.00
60015;BME280;45867;52.480;6.056;2023-12-20T06:54:28;101479.88;;;6.26;100.00
60015;BME280;45867;52.480;6.056;2023-12-20T06:56:55;101489.53;;;6.32;100.00
60015;BME280;45867;52.480;6.056;2023-12-20T06:59:25;101454.06;;;6.16;100.00
60015;BME280;45867;52.480;6.056;2023-12-20T07:01:54;101488.22;;;6.41;100.00
60015;BME280;45867;52.480;6.056;2023-12-20T07:04:21;101491.84;;;6.40;100.00
60015;BME280;45867;52.480;6.056;2023-12-20T07:06:51;101450.00;;;6.20;100.00
60015;BME280;45867;52.480;6.056;2023-12-20T07:09:23;101481.13;;;6.42;100.00
60015;BME280;45867;52.480;6.056;2023-12-20T07:11:50;101433.84;;;6.17;100.00
60015;BME280;45867;52.480;6.056;2023-12-20T07:14:16;101452.41;;;6.22;100.00
60015;BME280;45867;52.480;6.056;2023-12-20T07:16:57;101482.28;;;6.46;100.00
60015;BME280;45867;52.480;6.056;2023-12-20T07:19:32;101454.06;;;6.35;100.00
60015;BME280;45867;52.480;6.056;2023-12-20T07:22:00;101464.28;;;6.43;100.00
60015;BME280;45867;52.480;6.056;2023-12-20T07:24:27;101463.13;;;6.39;100.00
60015;BME280;45867;52.480;6.056;2023-12-20T07:26:55;101483.00;;;6.53;100.00
60015;BME280;45867;52.480;6.056;2023-12-20T07:29:28;101474.38;;;6.46;100.00
60015;BME280;45867;52.480;6.056;2023-12-20T07:31:54;101486.56;;;6.59;100.00
60015;BME280;45867;52.480;6.056;2023-12-20T07:34:21;101481.88;;;6.61;100.00
60015;BME280;45867;52.480;6.056;2023-12-20T07:36:54;101457.44;;;6.42;100.00
60015;BME280;45867;52.480;6.056;2023-12-20T07:39:21;101454.13;;;6.47;100.00
60015;BME280;45867;52.480;6.056;2023-12-20T07:41:49;101475.59;;;6.62;100.00
60015;BME280;45867;52.480;6.056;2023-12-20T07:44:16;101454.56;;;6.43;100.00
60015;BME280;45867;52.480;6.056;2023-12-20T07:46:45;101447.78;;;6.36;100.00
60015;BME280;45867;52.480;6.056;2023-12-20T07:49:11;101492.78;;;6.64;100.00
60015;BME280;45867;52.480;6.056;2023-12-20T07:51:38;101484.72;;;6.59;100.00
60015;BME280;45867;52.480;6.056;2023-12-20T07:54:04;101491.72;;;6.65;100.00
60015;BME280;45867;52.480;6.056;2023-12-20T07:56:31;101511.13;;;6.71;100.00
60015;BME280;45867;52.480;6.056;2023-12-20T07:58:58;101509.75;;;6.69;100.00
60015;BME280;45867;52.480;6.056;2023-12-20T08:01:29;101516.81;;;6.68;100.00
60015;BME280;45867;52.480;6.056;2023-12-20T08:03:59;101503.97;;;6.60;100.00
60015;BME280;45867;52.480;6.056;2023-12-20T08:06:26;101500.47;;;6.66;100.00
60015;BME280;45867;52.480;6.056;2023-12-20T08:08:55;101514.72;;;6.77;100.00
60015;BME280;45867;52.480;6.056;2023-12-20T08:11:35;101474.88;;;6.55;100.00
60015;BME280;45867;52.480;6.056;2023-12-20T08:14:02;101503.66;;;6.68;100.00
60015;BME280;45867;52.480;6.056;2023-12-20T08:16:29;101483.34;;;6.57;100.00
60015;BME280;45867;52.480;6.056;2023-12-20T08:19:02;101489.41;;;6.57;100.00
60015;BME280;45867;52.480;6.056;2023-12-20T08:21:29;101487.06;;;6.67;100.00
60015;BME280;45867;52.480;6.056;2023-12-20T08:23:56;101473.63;;;6.57;100.00
60015;BME280;45867;52.480;6.056;2023-12-20T08:26:22;101512.63;;;6.79;100.00
60015;BME280;45867;52.480;6.056;2023-12-20T08:28:50;101483.16;;;6.70;100.00
60015;BME280;45867;52.480;6.056;2023-12-20T08:31:20;101494.56;;;6.82;100.00
60015;BME280;45867;52.480;6.056;2023-12-20T08:33:49;101479.06;;;6.74;100.00
60015;BME280;45867;52.480;6.056;2023-12-20T08:36:21;101474.91;;;6.66;100.00
60015;BME280;45867;52.480;6.056;2023-12-20T08:38:48;101461.03;;;6.59;100.00
60015;BME280;45867;52.480;6.056;2023-12-20T08:41:18;101429.25;;;6.42;100.00
60015;BME280;45867;52.480;6.056;2023-12-20T08:43:50;101448.56;;;6.55;100.00
60015;BME280;45867;52.480;6.056;2023-12-20T08:46:16;101436.75;;;6.57;100.00
60015;BME280;45867;52.480;6.056;2023-12-20T08:48:47;101435.28;;;6.61;100.00
60015;BME280;45867;52.480;6.056;2023-12-20T08:51:23;101429.69;;;6.70;100.00
60015;BME280;45867;52.480;6.056;2023-12-20T08:53:49;101382.47;;;6.44;100.00
60015;BME280;45867;52.480;6.056;2023-12-20T08:56:16;101400.94;;;6.68;100.00
60015;BME280;45867;52.480;6.056;2023-12-20T08:58:50;101379.50;;;6.53;100.00
60015;BME280;45867;52.480;6.056;2023-12-20T09:01:16;101413.34;;;6.79;100.00
60015;BME280;45867;52.480;6.056;2023-12-20T09:03:47;101411.16;;;6.76;100.00
60015;BME280;45867;52.480;6.056;2023-12-20T09:06:13;101379.97;;;6.61;100.00
60015;BME280;45867;52.480;6.056;2023-12-20T09:08:40;101400.63;;;6.76;100.00
60015;BME280;45867;52.480;6.056;2023-12-20T09:11:10;101396.72;;;6.79;100.00
60015;BME280;45867;52.480;6.056;2023-12-20T09:13:37;101415.66;;;6.87;100.00
60015;BME280;45867;52.480;6.056;2023-12-20T09:16:04;101421.94;;;6.86;100.00
60015;BME280;45867;52.480;6.056;2023-12-20T09:18:33;101439.03;;;6.96;100.00
60015;BME280;45867;52.480;6.056;2023-12-20T09:21:09;101444.88;;;6.98;100.00
60015;BME280;45867;52.480;6.056;2023-12-20T09:23:35;101416.69;;;6.86;100.00
60015;BME280;45867;52.480;6.056;2023-12-20T09:26:02;101458.44;;;7.13;100.00
60015;BME280;45867;52.480;6.056;2023-12-20T09:28:29;101467.38;;;7.12;100.00
60015;BME280;45867;52.480;6.056;2023-12-20T09:30:55;101452.69;;;7.04;100.00
60015;BME280;45867;52.480;6.056;2023-12-20T09:33:22;101491.09;;;7.24;100.00
60015;BME280;45867;52.480;6.056;2023-12-20T09:35:52;101494.53;;;7.24;100.00
60015;BME280;45867;52.480;6.056;2023-12-20T09:38:19;101464.50;;;7.14;100.00
60015;BME280;45867;52.480;6.056;2023-12-20T09:40:49;101501.31;;;7.32;100.00
60015;BME280;45867;52.480;6.056;2023-12-20T09:43:26;101497.31;;;7.29;100.00
60015;BME280;45867;52.480;6.056;2023-12-20T09:45:54;101523.09;;;7.39;100.00
60015;BME280;45867;52.480;6.056;2023-12-20T09:48:27;101511.41;;;7.47;100.00
60015;BME280;45867;52.480;6.056;2023-12-20T09:51:03;101506.00;;;7.42;100.00
60015;BME280;45867;52.480;6.056;2023-12-20T09:53:30;101491.44;;;7.27;100.00
60015;BME280;45867;52.480;6.056;2023-12-20T09:56:06;101542.38;;;7.51;100.00
60015;BME280;45867;52.480;6.056;2023-12-20T09:58:37;101520.91;;;7.24;100.00
60015;BME280;45867;52.480;6.056;2023-12-20T10:01:07;101564.94;;;7.36;100.00
60015;BME280;45867;52.480;6.056;2023-12-20T10:03:34;101501.53;;;7.19;100.00
60015;BME280;45867;52.480;6.056;2023-12-20T10:06:01;101514.03;;;7.23;100.00
60015;BME280;45867;52.480;6.056;2023-12-20T10:08:28;101525.13;;;7.25;100.00
60015;BME280;45867;52.480;6.056;2023-12-20T10:10:54;101530.53;;;7.19;100.00
60015;BME280;45867;52.480;6.056;2023-12-20T10:13:23;101530.13;;;7.45;100.00
60015;BME280;45867;52.480;6.056;2023-12-20T10:15:55;101533.31;;;7.47;100.00
60015;BME280;45867;52.480;6.056;2023-12-20T10:18:22;101530.66;;;7.47;100.00
60015;BME280;45867;52.480;6.056;2023-12-20T10:21:02;101552.59;;;7.71;100.00
60015;BME280;45867;52.480;6.056;2023-12-20T10:26:08;101528.19;;;7.64;100.00
60015;BME280;45867;52.480;6.056;2023-12-20T10:28:35;101537.22;;;7.68;100.00
60015;BME280;45867;52.480;6.056;2023-12-20T10:31:02;101526.09;;;7.66;100.00
60015;BME280;45867;52.480;6.056;2023-12-20T10:33:30;101548.03;;;7.78;100.00
60015;BME280;45867;52.480;6.056;2023-12-20T10:36:01;101535.97;;;7.59;100.00
60015;BME280;45867;52.480;6.056;2023-12-20T10:39:02;101559.72;;;7.71;100.00
60015;BME280;45867;52.480;6.056;2023-12-20T10:41:52;101513.25;;;7.46;100.00
60015;BME280;45867;52.480;6.056;2023-12-20T10:44:29;101501.56;;;7.54;100.00
60015;BME280;45867;52.480;6.056;2023-12-20T10:46:58;101518.09;;;7.61;100.00
60015;BME280;45867;52.480;6.056;2023-12-20T10:49:25;101498.13;;;7.65;100.00
60015;BME280;45867;52.480;6.056;2023-12-20T10:51:54;101497.31;;;7.65;100.00
60015;BME280;45867;52.480;6.056;2023-12-20T10:54:24;101497.66;;;7.68;100.00
60015;BME280;45867;52.480;6.056;2023-12-20T10:56:52;101466.34;;;7.72;100.00
60015;BME280;45867;52.480;6.056;2023-12-20T10:59:22;101448.44;;;7.86;100.00
60015;BME280;45867;52.480;6.056;2023-12-20T11:01:53;101460.78;;;8.09;100.00
60015;BME280;45867;52.480;6.056;2023-12-20T11:04:34;101500.44;;;8.26;100.00
60015;BME280;45867;52.480;6.056;2023-12-20T11:07:32;101501.66;;;7.47;100.00
60015;BME280;45867;52.480;6.056;2023-12-20T11:10:08;101514.91;;;7.17;100.00
60015;BME280;45867;52.480;6.056;2023-12-20T11:12:56;101551.66;;;7.00;100.00
60015;BME280;45867;52.480;6.056;2023-12-20T11:15:25;101565.75;;;6.76;100.00
60015;BME280;45867;52.480;6.056;2023-12-20T11:17:58;101531.63;;;6.51;100.00
60015;BME280;45867;52.480;6.056;2023-12-20T11:20:36;101530.97;;;6.55;100.00
60015;BME280;45867;52.480;6.056;2023-12-20T11:23:08;101550.13;;;6.62;100.00
60015;BME280;45867;52.480;6.056;2023-12-20T11:25:53;101522.78;;;6.63;100.00
60015;BME280;45867;52.480;6.056;2023-12-20T11:28:38;101492.63;;;6.59;100.00
60015;BME280;45867;52.480;6.056;2023-12-20T11:31:14;101509.06;;;6.73;100.00
60015;BME280;45867;52.480;6.056;2023-12-20T11:33:41;101485.78;;;6.58;100.00
60015;BME280;45867;52.480;6.056;2023-12-20T11:36:15;101458.50;;;6.53;100.00
60015;BME280;45867;52.480;6.056;2023-12-20T11:39:00;101435.28;;;6.31;100.00
60015;BME280;45867;52.480;6.056;2023-12-20T11:41:27;101498.44;;;6.50;100.00
60015;BME280;45867;52.480;6.056;2023-12-20T11:43:56;101466.38;;;6.22;100.00
60015;BME280;45867;52.480;6.056;2023-12-20T11:46:26;101444.94;;;6.19;100.00
60015;BME280;45867;52.480;6.056;2023-12-20T11:49:01;101430.84;;;6.13;100.00
60015;BME280;45867;52.480;6.056;2023-12-20T11:51:34;101437.94;;;6.13;100.00
60015;BME280;45867;52.480;6.056;2023-12-20T11:54:01;101406.28;;;5.83;100.00
60015;BME280;45867;52.480;6.056;2023-12-20T11:56:27;101425.97;;;5.98;100.00
60015;BME280;45867;52.480;6.056;2023-12-20T11:58:58;101391.09;;;5.85;100.00
60015;BME280;45867;52.480;6.056;2023-12-20T12:01:51;101365.22;;;6.00;100.00
60015;BME280;45867;52.480;6.056;2023-12-20T12:04:22;101339.19;;;5.92;100.00
60015;BME280;45867;52.480;6.056;2023-12-20T12:06:49;101361.63;;;6.13;100.00
60015;BME280;45867;52.480;6.056;2023-12-20T12:09:16;101317.31;;;5.79;100.00
60015;BME280;45867;52.480;6.056;2023-12-20T12:11:46;101307.06;;;5.90;100.00
60015;BME280;45867;52.480;6.056;2023-12-20T12:14:23;101302.25;;;5.87;100.00
60015;BME280;45867;52.480;6.056;2023-12-20T12:16:50;101307.44;;;5.93;100.00
60015;BME280;45867;52.480;6.056;2023-12-20T12:19:33;101322.16;;;6.13;100.00
60015;BME280;45867;52.480;6.056;2023-12-20T12:22:18;101293.34;;;5.88;100.00
60015;BME280;45867;52.480;6.056;2023-12-20T12:24:53;101307.47;;;6.05;100.00
60015;BME280;45867;52.480;6.056;2023-12-20T12:27:20;101259.50;;;5.91;100.00
60015;BME280;45867;52.480;6.056;2023-12-20T12:30:08;101260.00;;;6.00;100.00
60015;BME280;45867;52.480;6.056;2023-12-20T12:32:35;101256.13;;;6.03;100.00
60015;BME280;45867;52.480;6.056;2023-12-20T12:35:05;101229.53;;;5.92;100.00
60015;BME280;45867;52.480;6.056;2023-12-20T12:37:39;101239.47;;;6.20;100.00
60015;BME280;45867;52.480;6.056;2023-12-20T12:40:13;101210.50;;;6.09;100.00
60015;BME280;45867;52.480;6.056;2023-12-20T12:42:42;101187.84;;;5.96;100.00
60015;BME280;45867;52.480;6.056;2023-12-20T12:45:11;101182.56;;;6.08;100.00
60015;BME280;45867;52.480;6.056;2023-12-20T12:47:40;101163.28;;;6.14;100.00
60015;BME280;45867;52.480;6.056;2023-12-20T12:50:16;101151.38;;;6.23;100.00
60015;BME280;45867;52.480;6.056;2023-12-20T12:52:47;101137.50;;;6.16;100.00
60015;BME280;45867;52.480;6.056;2023-12-20T12:55:26;101148.38;;;6.31;100.00
60015;BME280;45867;52.480;6.056;2023-12-20T12:57:54;101141.41;;;6.37;100.00
60015;BME280;45867;52.480;6.056;2023-12-20T13:00:21;101095.75;;;6.31;100.00
60015;BME280;45867;52.480;6.056;2023-12-20T13:02:50;101111.75;;;6.53;100.00
60015;BME280;45867;52.480;6.056;2023-12-20T13:05:17;101096.06;;;6.58;100.00
60015;BME280;45867;52.480;6.056;2023-12-20T13:07:47;101069.00;;;6.75;100.00